Aviation Digital Data Service (ADDS)

Output produced by TAFs form (1355 UTC 23 April 2017)
found at http://aviationweather.gov/adds/tafs/
 
KGJT 231123Z 2312/2412 12010KT P6SM BKN250 
     FM232000 21013G24KT P6SM SCT200 
     FM240200 21007KT P6SM FEW150 
     FM240400 10008KT P6SM SCT200